Time;durP1;ratioP1;P1;durP2;ratioP2;P2;SDS_P1;SDS_P2;PMS_P1;PMS_P2;Temp;Humidity;BMP_temperature;BMP_pressure;BME280_temperature;BME280_humidity;BME280_pressure;Samples;Min_cycle;Max_cycle;Signal;HPM_P1;HPM_P2
2023/05/16 00:00:05;;;;;;;13.05;3.15;;;;;;;9.94;100.00;101732.84;5008986;28;20120;-63
2023/05/16 00:02:31;;;;;;;11.63;3.15;;;;;;;9.92;100.00;101730.97;5007443;28;20092;-63
2023/05/16 00:04:56;;;;;;;11.63;2.60;;;;;;;9.91;100.00;101736.97;5008791;28;20041;-64
2023/05/16 00:07:22;;;;;;;13.80;3.88;;;;;;;9.90;100.00;101724.81;5007804;28;20026;-63
2023/05/16 00:09:47;;;;;;;10.38;3.22;;;;;;;9.88;100.00;101731.63;5008569;28;20085;-63
2023/05/16 00:12:12;;;;;;;12.88;3.13;;;;;;;9.87;100.00;101735.03;5008651;28;20026;-63
2023/05/16 00:14:38;;;;;;;12.82;3.13;;;;;;;9.82;100.00;101738.28;5007805;28;20021;-63
2023/05/16 00:17:10;;;;;;;10.80;3.05;;;;;;;9.78;100.00;101738.97;5008562;28;20108;-63
2023/05/16 00:19:35;;;;;;;11.93;3.00;;;;;;;9.79;100.00;101740.72;5007899;28;20330;-63
2023/05/16 00:22:00;;;;;;;13.52;3.13;;;;;;;9.79;100.00;101738.13;5007520;28;20028;-64
2023/05/16 00:24:26;;;;;;;12.43;2.90;;;;;;;9.78;100.00;101743.25;5007958;28;20029;-63
2023/05/16 00:26:52;;;;;;;12.70;3.13;;;;;;;9.74;100.00;101734.44;5008240;28;20017;-63
2023/05/16 00:29:17;;;;;;;12.18;2.85;;;;;;;9.74;100.00;101744.78;5008410;28;20030;-63
2023/05/16 00:31:43;;;;;;;9.75;2.80;;;;;;;9.74;100.00;101739.59;5006234;28;20022;-63
2023/05/16 00:34:08;;;;;;;10.20;2.80;;;;;;;9.71;100.00;101739.47;5008522;28;20032;-63
2023/05/16 00:36:34;;;;;;;11.55;2.88;;;;;;;9.70;100.00;101748.03;5007299;28;20053;-63
2023/05/16 00:39:00;;;;;;;11.55;2.28;;;;;;;9.68;100.00;101742.78;5007951;28;20451;-63
2023/05/16 00:41:25;;;;;;;12.43;2.60;;;;;;;9.67;100.00;101738.41;5007220;28;20120;-63
2023/05/16 00:43:51;;;;;;;10.30;2.63;;;;;;;9.66;100.00;101746.09;5008184;28;20444;-64
2023/05/16 00:46:16;;;;;;;10.88;2.58;;;;;;;9.63;100.00;101740.75;5007708;28;20030;-63
2023/05/16 00:48:41;;;;;;;9.85;2.70;;;;;;;9.61;100.00;101739.00;5007991;28;20017;-63
2023/05/16 00:51:08;;;;;;;11.02;2.30;;;;;;;9.56;100.00;101743.06;5007354;28;20065;-63
2023/05/16 00:53:34;;;;;;;9.57;2.58;;;;;;;9.52;100.00;101740.22;5007269;28;21112;-63
2023/05/16 00:56:00;;;;;;;15.98;3.30;;;;;;;9.46;100.00;101748.56;5007882;28;20022;-63
2023/05/16 00:58:28;;;;;;;14.23;2.58;;;;;;;9.42;100.00;101746.63;5007177;28;20036;-63
2023/05/16 01:00:53;;;;;;;10.27;2.53;;;;;;;9.41;100.00;101752.63;5007582;28;20022;-63
2023/05/16 01:03:19;;;;;;;14.45;2.95;;;;;;;9.33;100.00;101752.22;5007320;28;20053;-63
2023/05/16 01:05:45;;;;;;;8.65;2.53;;;;;;;9.22;100.00;101749.06;5007444;28;20022;-63
2023/05/16 01:08:10;;;;;;;10.30;2.25;;;;;;;9.19;100.00;101751.50;5007957;28;20029;-63
2023/05/16 01:11:01;;;;;;;8.60;2.03;;;;;;;9.13;100.00;101759.81;5006685;28;20040;-63
2023/05/16 01:13:39;;;;;;;10.60;2.08;;;;;;;9.09;100.00;101758.78;5004667;28;20104;-63
2023/05/16 01:16:25;;;;;;;9.25;2.17;;;;;;;9.05;100.00;101751.66;5005754;28;20026;-63
2023/05/16 01:19:15;;;;;;;7.25;2.13;;;;;;;8.99;100.00;101757.38;5007289;28;20021;-63
2023/05/16 01:22:01;;;;;;;9.65;2.55;;;;;;;8.89;100.00;101756.00;5006506;28;20053;-63
2023/05/16 01:24:34;;;;;;;11.40;3.03;;;;;;;8.87;100.00;101756.72;5006715;28;20229;-63
2023/05/16 01:27:01;;;;;;;11.00;2.85;;;;;;;8.82;100.00;101756.50;5006944;28;20113;-63
2023/05/16 01:29:26;;;;;;;10.07;2.92;;;;;;;8.76;100.00;101758.75;5006920;28;20490;-63
2023/05/16 01:31:52;;;;;;;11.75;2.70;;;;;;;8.68;100.00;101760.03;5006405;28;20071;-63
2023/05/16 01:34:17;;;;;;;12.00;2.70;;;;;;;8.59;100.00;101758.72;5007055;28;20060;-63
2023/05/16 01:37:04;;;;;;;8.43;2.30;;;;;;;8.54;100.00;101754.97;5006525;28;20045;-63
2023/05/16 01:39:41;;;;;;;10.45;2.40;;;;;;;8.51;100.00;101754.78;4989039;28;20033;-63
2023/05/16 01:42:13;;;;;;;11.25;2.28;;;;;;;8.47;100.00;101758.00;5006988;28;20029;-63
2023/05/16 01:45:17;;;;;;;15.38;2.85;;;;;;;8.43;100.00;101761.22;5006404;28;20026;-63
2023/05/16 01:47:46;;;;;;;10.73;2.30;;;;;;;8.41;100.00;101767.19;5006472;28;20032;-63
2023/05/16 01:50:18;;;;;;;9.30;2.42;;;;;;;8.37;100.00;101764.34;5006646;28;20082;-63
2023/05/16 01:52:58;;;;;;;9.82;2.05;;;;;;;8.35;100.00;101766.84;5006628;28;20057;-63
2023/05/16 01:55:47;;;;;;;11.48;2.75;;;;;;;8.33;100.00;101767.56;5007000;28;20344;-63
2023/05/16 01:58:18;;;;;;;9.23;1.90;;;;;;;8.26;100.00;101771.47;5006237;28;20096;-63
2023/05/16 02:00:43;;;;;;;10.70;2.40;;;;;;;8.23;100.00;101773.91;5006750;28;20153;-63
2023/05/16 02:03:09;;;;;;;7.32;1.88;;;;;;;8.20;100.00;101776.31;5006618;28;20132;-63
2023/05/16 02:05:34;;;;;;;10.38;1.92;;;;;;;8.14;100.00;101776.84;5006052;28;20040;-63
2023/05/16 02:08:00;;;;;;;14.93;2.90;;;;;;;8.10;100.00;101780.94;5007065;28;20044;-63
2023/05/16 02:10:26;;;;;;;10.40;2.35;;;;;;;8.08;100.00;101782.53;5006341;28;20033;-63
2023/05/16 02:12:51;;;;;;;8.52;1.90;;;;;;;8.01;100.00;101771.00;5005964;28;20022;-63
2023/05/16 02:15:17;;;;;;;9.50;2.40;;;;;;;8.01;100.00;101788.16;5006633;28;20088;-63
2023/05/16 02:17:43;;;;;;;8.98;2.42;;;;;;;7.97;100.00;101784.50;5006000;28;20393;-63
2023/05/16 02:20:10;;;;;;;11.55;2.15;;;;;;;7.95;100.00;101780.94;5006231;28;20025;-63
2023/05/16 02:22:36;;;;;;;13.68;2.42;;;;;;;7.90;100.00;101785.84;5005681;28;20462;-63
2023/05/16 02:25:02;;;;;;;14.10;2.20;;;;;;;7.85;100.00;101778.63;5006396;28;20033;-63
2023/05/16 02:27:31;;;;;;;8.55;1.83;;;;;;;7.79;100.00;101787.81;5005865;28;20381;-63
2023/05/16 02:29:56;;;;;;;8.88;1.75;;;;;;;7.79;100.00;101786.91;5006451;28;20672;-63
2023/05/16 02:32:22;;;;;;;8.85;1.70;;;;;;;7.74;100.00;101785.75;5006052;28;20026;-63
2023/05/16 02:34:47;;;;;;;9.05;1.92;;;;;;;7.69;100.00;101794.13;5006007;28;20029;-63
2023/05/16 02:37:12;;;;;;;9.40;2.13;;;;;;;7.69;100.00;101788.97;5005655;28;20018;-63
2023/05/16 02:39:38;;;;;;;11.75;2.42;;;;;;;7.63;100.00;101793.75;5006168;28;20116;-63
2023/05/16 02:42:04;;;;;;;7.32;1.83;;;;;;;7.60;100.00;101800.41;5006742;28;20029;-63
2023/05/16 02:44:29;;;;;;;12.20;2.60;;;;;;;7.56;100.00;101792.50;5005987;28;20037;-62
2023/05/16 02:46:55;;;;;;;9.63;1.98;;;;;;;7.53;100.00;101800.06;5006074;28;20034;-63
2023/05/16 02:49:20;;;;;;;11.82;2.25;;;;;;;7.52;100.00;101806.00;5005396;28;20050;-63
2023/05/16 02:51:46;;;;;;;9.88;1.88;;;;;;;7.49;100.00;101810.97;5006118;28;20057;-63
2023/05/16 02:54:12;;;;;;;9.77;2.20;;;;;;;7.49;100.00;101815.25;5006546;28;20057;-63
2023/05/16 02:56:38;;;;;;;7.95;2.53;;;;;;;7.45;100.00;101814.16;5009025;28;20616;-63
2023/05/16 02:59:04;;;;;;;7.32;1.92;;;;;;;7.43;100.00;101821.81;5010157;28;20029;-63
2023/05/16 03:01:29;;;;;;;11.98;2.38;;;;;;;7.37;100.00;101824.03;5008274;28;20390;-63
2023/05/16 03:03:55;;;;;;;10.40;2.03;;;;;;;7.31;100.00;101811.66;5009972;28;20420;-63
2023/05/16 03:06:20;;;;;;;10.77;1.92;;;;;;;7.28;100.00;101824.38;5009107;28;20021;-63
2023/05/16 03:08:46;;;;;;;9.40;2.33;;;;;;;7.28;100.00;101826.94;5010307;28;20372;-63
2023/05/16 03:11:12;;;;;;;9.65;2.47;;;;;;;7.28;100.00;101831.19;5009125;28;20053;-63
2023/05/16 03:13:37;;;;;;;10.50;2.72;;;;;;;7.26;100.00;101833.69;5009246;28;20092;-63
2023/05/16 03:16:05;;;;;;;8.35;2.40;;;;;;;7.27;100.00;101842.28;5009379;28;20030;-63
2023/05/16 03:18:30;;;;;;;10.63;2.53;;;;;;;7.27;100.00;101835.47;5008801;28;20057;-63
2023/05/16 03:20:56;;;;;;;13.23;2.30;;;;;;;7.27;100.00;101832.88;5009660;28;20053;-63
2023/05/16 03:23:22;;;;;;;14.90;2.55;;;;;;;7.26;100.00;101827.63;5009469;28;20049;-63
2023/05/16 03:25:48;;;;;;;10.63;2.75;;;;;;;7.27;100.00;101834.56;5009121;28;20032;-63
2023/05/16 03:28:16;;;;;;;10.23;2.10;;;;;;;7.21;100.00;101835.97;5009182;28;20038;-63
2023/05/16 03:30:41;;;;;;;13.75;4.32;;;;;;;7.18;100.00;101829.72;5008735;28;20040;-63
2023/05/16 03:33:06;;;;;;;11.88;2.40;;;;;;;7.18;100.00;101829.72;5009447;28;20541;-63
2023/05/16 03:35:33;;;;;;;11.25;2.53;;;;;;;7.14;100.00;101835.50;5008938;28;20032;-63
2023/05/16 03:37:58;;;;;;;7.45;1.80;;;;;;;7.12;100.00;101840.56;5007187;28;20419;-63
2023/05/16 03:40:23;;;;;;;9.02;1.80;;;;;;;7.09;100.00;101848.09;5007411;28;20030;-63
2023/05/16 03:42:49;;;;;;;7.35;2.30;;;;;;;7.07;100.00;101847.09;5007475;28;20458;-63
2023/05/16 03:45:14;;;;;;;10.77;2.22;;;;;;;7.06;100.00;101845.31;5006704;28;20034;-63
2023/05/16 03:47:40;;;;;;;10.88;2.40;;;;;;;7.05;100.00;101851.28;5007303;28;20549;-63
2023/05/16 03:50:06;;;;;;;9.05;2.47;;;;;;;7.02;100.00;101851.06;5006536;28;20092;-63
2023/05/16 03:52:32;;;;;;;12.00;2.20;;;;;;;6.97;100.00;101856.84;5007879;28;20493;-63
2023/05/16 03:54:57;;;;;;;11.00;2.10;;;;;;;6.94;100.00;101856.63;5009171;28;20440;-63
2023/05/16 03:57:22;;;;;;;8.25;2.75;;;;;;;6.87;100.00;101857.06;5008975;28;20090;-63
2023/05/16 03:59:47;;;;;;;10.57;3.08;;;;;;;6.86;100.00;101863.00;5008908;28;20072;-63
2023/05/16 04:02:13;;;;;;;12.60;2.58;;;;;;;6.84;100.00;101864.59;5008768;28;20096;-63
2023/05/16 04:04:38;;;;;;;9.63;2.60;;;;;;;6.81;100.00;101860.16;5007802;28;20401;-64
2023/05/16 04:07:03;;;;;;;14.90;2.53;;;;;;;6.83;100.00;101874.03;5008469;28;20030;-63
2023/05/16 04:09:29;;;;;;;7.57;2.60;;;;;;;6.82;100.00;101867.06;5008172;28;20033;-63
2023/05/16 04:11:55;;;;;;;10.88;2.80;;;;;;;6.82;100.00;101873.91;5008603;28;20025;-63
2023/05/16 04:14:22;;;;;;;11.55;2.33;;;;;;;6.81;100.00;101873.03;5008100;28;20022;-63
2023/05/16 04:16:47;;;;;;;11.07;2.00;;;;;;;6.79;100.00;101871.13;5008008;28;20357;-63
2023/05/16 04:19:12;;;;;;;14.57;3.28;;;;;;;6.80;100.00;101873.81;5008156;28;20495;-63
2023/05/16 04:21:38;;;;;;;8.13;2.45;;;;;;;6.80;100.00;101872.94;5007902;28;20527;-63
2023/05/16 04:24:03;;;;;;;12.35;2.45;;;;;;;6.79;100.00;101873.72;5007950;28;20025;-63
2023/05/16 04:26:29;;;;;;;9.80;3.15;;;;;;;6.78;100.00;101879.66;5008351;28;20462;-62
2023/05/16 04:28:54;;;;;;;9.27;2.17;;;;;;;6.79;100.00;101874.59;5008053;28;20076;-63
2023/05/16 04:31:20;;;;;;;10.82;2.40;;;;;;;6.81;100.00;101890.16;5007916;28;20489;-63
2023/05/16 04:33:46;;;;;;;9.20;2.50;;;;;;;6.84;100.00;101882.63;5007972;28;20025;-62
2023/05/16 04:36:11;;;;;;;7.85;2.47;;;;;;;6.87;100.00;101889.66;5008274;28;20026;-63
2023/05/16 04:38:36;;;;;;;9.32;2.20;;;;;;;6.88;100.00;101894.00;5007465;28;20018;-63
2023/05/16 04:41:02;;;;;;;7.50;2.30;;;;;;;6.88;100.00;101897.50;5007628;28;20474;-63
2023/05/16 04:43:28;;;;;;;10.80;2.28;;;;;;;6.90;100.00;101905.31;5007585;28;20072;-63
2023/05/16 04:45:53;;;;;;;10.88;3.03;;;;;;;6.88;100.00;101897.50;5007661;28;20508;-62
2023/05/16 04:48:18;;;;;;;12.52;2.45;;;;;;;6.91;100.00;101901.94;5006870;28;20085;-62
2023/05/16 04:50:44;;;;;;;7.68;1.83;;;;;;;6.93;100.00;101901.25;5007506;28;20511;-62
2023/05/16 04:53:09;;;;;;;12.98;2.70;;;;;;;6.99;100.00;101911.06;5006973;28;20030;-63
2023/05/16 04:55:35;;;;;;;8.73;2.22;;;;;;;7.04;100.00;101908.78;5007182;28;20451;-63
2023/05/16 04:58:00;;;;;;;8.68;2.35;;;;;;;7.08;100.00;101915.91;4992480;28;20113;-63
2023/05/16 05:00:25;;;;;;;9.73;2.42;;;;;;;7.15;100.00;101914.63;5007856;28;20030;-63
2023/05/16 05:02:51;;;;;;;10.70;2.33;;;;;;;7.20;100.00;101911.53;5007804;28;20042;-63
2023/05/16 05:05:16;;;;;;;11.02;3.15;;;;;;;7.27;100.00;101912.81;5007434;28;20030;-63
2023/05/16 05:07:42;;;;;;;12.13;2.25;;;;;;;7.33;100.00;101910.63;5007455;28;20025;-63
2023/05/16 05:10:07;;;;;;;10.70;2.50;;;;;;;7.41;100.00;101915.38;5007508;28;20041;-63
2023/05/16 05:12:33;;;;;;;9.15;2.63;;;;;;;7.47;100.00;101914.84;5007231;28;20030;-63
2023/05/16 05:14:58;;;;;;;10.02;2.22;;;;;;;7.55;100.00;101916.22;5008140;28;20026;-63
2023/05/16 05:17:24;;;;;;;8.40;2.03;;;;;;;7.62;100.00;101920.06;5006393;28;20030;-63
2023/05/16 05:19:49;;;;;;;11.90;2.58;;;;;;;7.68;100.00;101911.00;5007284;28;20022;-63
2023/05/16 05:22:15;;;;;;;9.68;2.20;;;;;;;7.77;100.00;101920.13;5007486;28;20021;-63
2023/05/16 05:24:40;;;;;;;12.65;2.67;;;;;;;7.85;100.00;101924.06;5006511;28;20083;-63
2023/05/16 05:27:06;;;;;;;13.10;2.38;;;;;;;7.96;100.00;101921.22;5007060;28;20053;-63
2023/05/16 05:29:31;;;;;;;13.05;2.38;;;;;;;8.02;100.00;101921.63;5007047;28;20080;-63
2023/05/16 05:31:56;;;;;;;8.85;2.28;;;;;;;8.11;100.00;101927.28;5006844;28;20454;-63
2023/05/16 05:34:21;;;;;;;10.50;2.20;;;;;;;8.21;100.00;101930.44;5006246;28;20458;-63
2023/05/16 05:36:47;;;;;;;11.38;2.50;;;;;;;8.29;100.00;101931.81;5007484;28;20042;-63
2023/05/16 05:39:12;;;;;;;9.45;2.17;;;;;;;8.39;100.00;101933.22;5006977;28;20413;-63
2023/05/16 05:41:38;;;;;;;7.10;1.88;;;;;;;8.49;100.00;101929.50;5006745;28;20072;-63
2023/05/16 05:44:04;;;;;;;6.72;2.08;;;;;;;8.61;100.00;101929.34;5006692;28;20026;-63
2023/05/16 05:46:30;;;;;;;7.43;2.15;;;;;;;8.73;100.00;101931.72;4997996;28;20615;-63
2023/05/16 05:48:55;;;;;;;12.15;1.85;;;;;;;8.86;100.00;101936.81;5007041;28;20044;-63
2023/05/16 05:51:20;;;;;;;12.77;2.20;;;;;;;9.03;100.00;101941.13;5007327;28;20105;-62
2023/05/16 05:53:46;;;;;;;12.40;2.10;;;;;;;9.19;100.00;101935.13;5003866;28;20069;-62
2023/05/16 05:56:11;;;;;;;9.52;1.67;;;;;;;9.37;100.00;101940.44;5006885;28;20547;-62
2023/05/16 05:58:37;;;;;;;8.00;1.85;;;;;;;9.55;100.00;101944.81;5005784;28;20021;-62
2023/05/16 06:01:03;;;;;;;7.32;1.73;;;;;;;9.71;100.00;101947.41;4998702;28;20601;-62
2023/05/16 06:03:28;;;;;;;6.75;1.58;;;;;;;9.87;100.00;101952.50;4987309;28;20091;-62
2023/05/16 06:05:53;;;;;;;6.90;1.92;;;;;;;9.99;100.00;101947.06;4995814;28;20025;-62
2023/05/16 06:08:19;;;;;;;6.25;1.90;;;;;;;10.16;100.00;101956.63;5004522;28;20037;-62
2023/05/16 06:10:44;;;;;;;6.55;1.48;;;;;;;10.30;100.00;101959.94;5004792;28;20022;-62
2023/05/16 06:13:09;;;;;;;6.72;1.73;;;;;;;10.41;100.00;101962.16;5005242;28;20462;-62
2023/05/16 06:15:35;;;;;;;6.30;1.35;;;;;;;10.56;100.00;101962.97;5004971;28;20030;-62
2023/05/16 06:18:00;;;;;;;9.25;1.67;;;;;;;10.72;100.00;101966.31;5005323;28;20025;-62
2023/05/16 06:20:25;;;;;;;9.23;2.10;;;;;;;10.87;100.00;101970.47;5005699;28;20174;-62
2023/05/16 06:22:50;;;;;;;6.78;2.35;;;;;;;11.00;100.00;101975.47;5006596;28;20121;-62
2023/05/16 06:25:16;;;;;;;7.95;1.52;;;;;;;11.14;100.00;101972.63;5006668;28;20088;-62
2023/05/16 06:27:41;;;;;;;5.55;1.55;;;;;;;11.29;100.00;101968.19;5006491;28;20132;-62
2023/05/16 06:30:07;;;;;;;5.68;1.60;;;;;;;11.46;100.00;101970.66;5009016;28;20460;-61
2023/05/16 06:32:32;;;;;;;7.40;1.67;;;;;;;11.61;100.00;101969.59;5010196;28;20432;-62
2023/05/16 06:34:58;;;;;;;8.55;1.73;;;;;;;11.71;98.34;101970.91;5009781;28;20401;-62
2023/05/16 06:37:25;;;;;;;5.72;2.00;;;;;;;11.74;96.63;101965.84;5010390;28;20038;-62
2023/05/16 06:39:50;;;;;;;8.88;1.67;;;;;;;11.79;94.66;101979.03;5010486;28;20029;-62
2023/05/16 06:42:16;;;;;;;7.95;1.63;;;;;;;11.91;96.20;101982.19;5010332;28;20349;-62
2023/05/16 06:44:41;;;;;;;5.47;1.30;;;;;;;12.08;95.99;101982.06;5009547;28;20523;-62
2023/05/16 06:47:06;;;;;;;9.50;1.48;;;;;;;12.22;91.58;101974.91;5010000;28;20117;-62
2023/05/16 06:49:32;;;;;;;7.45;2.00;;;;;;;12.32;89.49;101973.59;5009648;28;20054;-62
2023/05/16 06:51:58;;;;;;;5.63;1.25;;;;;;;12.49;90.63;101975.19;5009865;28;20037;-62
2023/05/16 06:54:23;;;;;;;8.38;1.88;;;;;;;12.66;91.08;101977.63;5009461;28;20026;-62
2023/05/16 06:56:48;;;;;;;5.95;1.13;;;;;;;12.79;86.79;101972.94;5009810;28;20029;-62
2023/05/16 06:59:14;;;;;;;6.75;1.67;;;;;;;12.93;86.24;101978.69;5010057;28;20028;-63
2023/05/16 07:01:40;;;;;;;5.85;1.20;;;;;;;13.05;86.04;101970.47;5009002;28;20036;-63
2023/05/16 07:04:06;;;;;;;9.52;1.42;;;;;;;13.11;84.60;101981.13;5009755;28;20046;-62
2023/05/16 07:06:31;;;;;;;7.35;1.48;;;;;;;13.21;84.56;101978.06;5009751;28;20432;-62
2023/05/16 07:08:56;;;;;;;6.43;1.45;;;;;;;13.18;82.39;101972.75;5009460;28;20024;-62
2023/05/16 07:11:22;;;;;;;5.88;1.13;;;;;;;13.20;82.41;101971.06;5002536;28;20053;-62
2023/05/16 07:13:47;;;;;;;7.10;1.25;;;;;;;13.36;82.81;101976.91;5003832;28;20396;-63
2023/05/16 07:16:12;;;;;;;6.43;1.48;;;;;;;13.55;81.40;101975.00;5009880;28;20021;-62
2023/05/16 07:18:37;;;;;;;7.45;1.63;;;;;;;13.64;80.57;101988.38;5009018;28;20041;-62
2023/05/16 07:21:03;;;;;;;5.10;1.50;;;;;;;13.65;79.96;101979.72;5010004;28;20527;-62
2023/05/16 07:23:28;;;;;;;4.18;1.25;;;;;;;13.79;79.37;101987.19;5008757;28;20028;-63
2023/05/16 07:25:53;;;;;;;4.57;1.23;;;;;;;14.02;79.11;101982.81;5009461;28;20109;-63
2023/05/16 07:28:19;;;;;;;8.30;1.55;;;;;;;14.20;77.53;101983.41;5009547;28;20026;-62
2023/05/16 07:30:45;;;;;;;5.03;1.77;;;;;;;14.26;73.90;101989.75;5008972;28;20030;-62
2023/05/16 07:33:10;;;;;;;5.75;1.42;;;;;;;14.46;71.32;101981.72;5009408;28;20026;-63
2023/05/16 07:35:35;;;;;;;5.45;1.10;;;;;;;14.56;70.66;101988.13;5009159;28;20029;-63
2023/05/16 07:38:00;;;;;;;6.20;0.95;;;;;;;14.59;68.98;101988.22;5009491;28;20187;-62
2023/05/16 07:40:28;;;;;;;4.38;1.10;;;;;;;14.65;67.76;101996.25;5008697;28;20084;-63
2023/05/16 07:42:53;;;;;;;5.82;1.55;;;;;;;14.56;67.37;101993.34;5008621;28;20026;-63
2023/05/16 07:45:19;;;;;;;4.32;1.33;;;;;;;14.47;67.98;101987.81;5008869;28;20086;-63
2023/05/16 07:47:45;;;;;;;5.90;1.05;;;;;;;14.48;68.20;101980.03;5009591;28;20245;-62
2023/05/16 07:50:10;;;;;;;4.32;1.10;;;;;;;14.64;69.02;101991.00;5008461;28;20112;-62
2023/05/16 07:52:35;;;;;;;4.35;1.40;;;;;;;14.81;70.81;101998.47;5008800;28;20018;-62
2023/05/16 07:55:01;;;;;;;6.43;1.45;;;;;;;14.88;66.66;102000.47;5009107;28;20033;-62
2023/05/16 07:57:28;;;;;;;5.22;1.20;;;;;;;14.92;67.05;102011.91;5008955;28;20539;-63
2023/05/16 07:59:54;;;;;;;5.15;1.23;;;;;;;14.84;65.46;102004.72;5008066;28;20053;-63
2023/05/16 08:02:19;;;;;;;6.35;1.35;;;;;;;14.58;66.38;102007.31;5008386;28;20394;-63
2023/05/16 08:04:44;;;;;;;4.72;1.33;;;;;;;14.29;68.27;102004.59;5008792;28;20032;-62
2023/05/16 08:07:10;;;;;;;4.10;1.23;;;;;;;14.23;70.74;102001.78;5009009;28;20018;-62
2023/05/16 08:09:35;;;;;;;5.97;1.48;;;;;;;14.32;71.55;102004.69;5008455;28;20031;-62
2023/05/16 08:12:02;;;;;;;6.95;1.50;;;;;;;14.32;69.43;102004.69;5008436;28;20022;-62
2023/05/16 08:14:30;;;;;;;5.53;1.48;;;;;;;14.13;69.01;102011.88;5008226;28;20392;-63
2023/05/16 08:16:57;;;;;;;3.80;0.70;;;;;;;13.93;68.53;102012.03;5008447;28;20032;-62
2023/05/16 08:19:22;;;;;;;5.78;1.30;;;;;;;13.65;70.06;102010.97;5008125;28;20077;-63
2023/05/16 08:21:47;;;;;;;4.57;1.10;;;;;;;13.44;70.58;102011.00;5007994;28;20033;-62
2023/05/16 08:24:12;;;;;;;5.25;1.48;;;;;;;13.19;71.23;102013.56;5007875;28;20054;-63
2023/05/16 08:26:38;;;;;;;8.77;1.83;;;;;;;13.06;73.70;102011.31;5008038;28;20045;-62
2023/05/16 08:29:03;;;;;;;6.13;1.23;;;;;;;12.97;74.09;102010.06;5008399;28;20052;-62
2023/05/16 08:31:29;;;;;;;7.35;1.30;;;;;;;13.21;77.66;102016.22;5007906;28;20072;-62
2023/05/16 08:33:54;;;;;;;13.23;2.05;;;;;;;13.72;78.36;102006.91;5007446;28;20034;-63
2023/05/16 08:36:19;;;;;;;4.28;0.75;;;;;;;14.31;75.81;102005.53;5007714;28;20504;-63
2023/05/16 08:38:45;;;;;;;5.78;0.98;;;;;;;14.88;72.96;102004.00;5008496;28;20026;-63
2023/05/16 08:41:11;;;;;;;6.60;1.00;;;;;;;15.41;69.07;102006.47;5008344;28;20096;-62
2023/05/16 08:43:36;;;;;;;3.78;0.95;;;;;;;15.96;69.44;101998.47;5007402;28;20033;-63
2023/05/16 08:46:01;;;;;;;3.25;0.75;;;;;;;16.32;63.30;101995.13;5008584;28;20025;-62
2023/05/16 08:48:27;;;;;;;5.65;0.90;;;;;;;16.35;59.29;101989.13;5007500;28;20029;-62
2023/05/16 08:50:52;;;;;;;4.50;0.98;;;;;;;16.11;59.19;101989.31;5007843;28;20032;-63
2023/05/16 08:53:21;;;;;;;6.03;1.23;;;;;;;15.90;62.10;101991.34;5006872;28;20022;-63
2023/05/16 08:55:47;;;;;;;4.90;1.25;;;;;;;16.04;63.56;101994.41;5007757;28;20037;-62
2023/05/16 08:58:13;;;;;;;4.30;0.98;;;;;;;16.26;63.30;101986.25;5007847;28;20033;-63
2023/05/16 09:00:39;;;;;;;4.25;1.25;;;;;;;16.25;59.84;101992.31;5007561;28;20042;-62
2023/05/16 09:03:05;;;;;;;3.30;1.10;;;;;;;15.98;60.24;101994.19;5007913;28;20046;-62
2023/05/16 09:05:30;;;;;;;4.85;0.90;;;;;;;15.96;61.66;101994.13;5008045;28;20040;-63
2023/05/16 09:07:56;;;;;;;4.25;1.05;;;;;;;16.17;61.49;101990.38;5007416;28;20024;-63
2023/05/16 09:10:21;;;;;;;3.40;0.95;;;;;;;16.39;59.71;101992.66;5007286;28;20029;-62
2023/05/16 09:12:46;;;;;;;4.35;1.05;;;;;;;16.58;58.26;101994.03;5006755;28;20393;-62
2023/05/16 09:15:12;;;;;;;3.63;1.00;;;;;;;16.79;59.59;101995.41;5007792;28;20022;-63
2023/05/16 09:17:42;;;;;;;5.63;1.23;;;;;;;17.06;60.43;101994.31;5007254;28;20025;-63
2023/05/16 09:20:10;;;;;;;4.68;0.90;;;;;;;17.42;60.81;101992.53;5007811;28;20036;-63
2023/05/16 09:22:36;;;;;;;2.97;0.90;;;;;;;17.66;57.88;101988.66;5006312;28;20022;-63
2023/05/16 09:25:02;;;;;;;4.53;1.30;;;;;;;17.75;55.30;101998.44;5007316;28;20029;-63
2023/05/16 09:27:30;;;;;;;4.60;1.35;;;;;;;17.74;59.52;102002.78;5006883;28;20038;-62
2023/05/16 09:29:57;;;;;;;4.43;1.05;;;;;;;17.55;60.21;101995.41;5007146;28;20041;-63
2023/05/16 09:32:23;;;;;;;4.10;1.48;;;;;;;17.16;59.98;102001.56;5006410;28;20397;-63
2023/05/16 09:34:50;;;;;;;4.90;1.40;;;;;;;16.62;59.40;102002.84;5007338;28;20022;-63
2023/05/16 09:37:16;;;;;;;6.15;1.55;;;;;;;16.21;62.61;102004.41;5006809;28;20022;-63
2023/05/16 09:39:47;;;;;;;4.55;1.35;;;;;;;15.92;64.66;102009.72;5006611;28;20079;-63
2023/05/16 09:42:17;;;;;;;4.45;1.38;;;;;;;15.61;63.99;102013.16;4993578;28;20029;-63
2023/05/16 09:44:53;;;;;;;9.98;1.25;;;;;;;15.41;65.27;102011.69;5006425;28;20552;-63
2023/05/16 09:47:20;;;;;;;4.70;1.08;;;;;;;15.23;64.39;102007.69;5006516;28;20397;-63
2023/05/16 09:49:50;;;;;;;2.92;0.77;;;;;;;15.35;68.27;102005.44;5006353;28;20026;-63
2023/05/16 09:52:16;;;;;;;7.10;1.23;;;;;;;15.67;68.53;101998.56;5006176;28;20401;-62
2023/05/16 09:54:41;;;;;;;3.90;0.88;;;;;;;15.94;63.47;101997.53;5006491;28;20036;-63
2023/05/16 09:57:06;;;;;;;2.83;0.80;;;;;;;16.11;60.17;101995.44;5007323;28;20026;-63
2023/05/16 09:59:36;;;;;;;3.38;0.77;;;;;;;16.43;56.95;102002.38;5006957;28;20667;-62
2023/05/16 10:02:02;;;;;;;3.03;0.73;;;;;;;16.63;56.94;101988.91;5006131;28;20424;-63
2023/05/16 10:04:27;;;;;;;3.92;0.60;;;;;;;16.77;57.14;101992.75;5005903;28;20033;-63
2023/05/16 10:06:56;;;;;;;2.78;0.98;;;;;;;16.96;54.61;101992.31;5007770;28;20208;-63
2023/05/16 10:09:23;;;;;;;2.97;0.60;;;;;;;17.19;55.02;101990.28;5006284;28;20022;-63
2023/05/16 10:11:50;;;;;;;5.30;0.77;;;;;;;17.12;53.76;101994.50;5006760;28;20026;-62
2023/05/16 10:14:20;;;;;;;2.53;0.82;;;;;;;16.69;54.31;101996.94;5005932;28;20141;-62
2023/05/16 10:16:50;;;;;;;3.08;0.85;;;;;;;16.29;55.05;101995.06;5006586;28;20037;-63
2023/05/16 10:19:20;;;;;;;3.33;0.90;;;;;;;15.89;57.02;101996.53;5006831;28;20465;-62
2023/05/16 10:21:51;;;;;;;3.22;0.70;;;;;;;15.65;58.52;102000.22;5006186;28;20277;-63
2023/05/16 10:24:25;;;;;;;5.70;0.93;;;;;;;15.76;59.45;101993.56;5006444;28;20030;-63
2023/05/16 10:26:51;;;;;;;4.03;0.80;;;;;;;16.10;59.50;101995.41;5006428;28;20028;-63
2023/05/16 10:29:18;;;;;;;3.40;0.65;;;;;;;16.44;57.72;101988.47;5006297;28;20486;-62
2023/05/16 10:31:44;;;;;;;2.83;0.70;;;;;;;16.79;54.61;101987.56;5006271;28;20021;-63
2023/05/16 10:34:10;;;;;;;3.22;0.85;;;;;;;17.03;53.56;101992.53;5006931;28;20401;-63
2023/05/16 10:36:35;;;;;;;3.30;0.60;;;;;;;17.04;52.67;101990.75;5005680;28;20034;-63
2023/05/16 10:39:02;;;;;;;7.47;1.67;;;;;;;16.82;51.61;101986.78;5006292;28;20105;-63
2023/05/16 10:41:28;;;;;;;4.80;1.13;;;;;;;16.60;54.39;101988.84;5005852;28;20109;-63
2023/05/16 10:43:57;;;;;;;4.43;0.80;;;;;;;16.46;54.85;101986.75;5007033;28;20121;-62
2023/05/16 10:46:23;;;;;;;4.60;0.85;;;;;;;16.61;56.32;101980.13;5005922;28;20475;-63
2023/05/16 10:48:49;;;;;;;5.45;1.00;;;;;;;16.85;55.43;101985.09;5006234;28;20029;-63
2023/05/16 10:51:35;;;;;;;1.42;0.77;;;;;;;17.03;53.91;101983.78;5005852;28;20445;-63
2023/05/16 10:54:07;;;;;;;2.08;0.80;;;;;;;16.96;52.93;101982.75;5006544;28;20033;-63
2023/05/16 10:56:34;;;;;;;6.78;0.98;;;;;;;17.02;56.49;101980.25;5005540;28;20053;-63
2023/05/16 10:58:59;;;;;;;5.47;0.90;;;;;;;17.16;55.53;101985.84;5006869;28;20026;-63
2023/05/16 11:01:34;;;;;;;2.85;1.27;;;;;;;17.21;56.46;101978.09;5005959;28;20022;-63
2023/05/16 11:04:02;;;;;;;2.83;1.17;;;;;;;17.13;54.41;101985.78;5005924;28;20414;-63
2023/05/16 11:06:35;;;;;;;7.30;1.10;;;;;;;16.88;52.78;101984.28;5005849;28;20029;-63
2023/05/16 11:09:09;;;;;;;3.53;1.27;;;;;;;16.63;53.75;101995.03;5005975;28;20038;-63
2023/05/16 11:11:57;;;;;;;4.25;0.85;;;;;;;16.35;53.91;101990.84;5005954;28;20080;-63
2023/05/16 11:14:24;;;;;;;3.47;0.80;;;;;;;16.14;53.27;101982.44;5004893;28;20041;-63
2023/05/16 11:16:52;;;;;;;7.28;1.63;;;;;;;16.10;55.11;101992.78;5007686;28;20053;-63
2023/05/16 11:19:46;;;;;;;4.68;1.05;;;;;;;16.00;56.74;101989.03;5009523;28;20030;-63